TimeMST,TemperatureF,Dew PointF,Humidity,Sea Level PressureIn,VisibilityMPH,Wind Direction,Wind SpeedMPH,Gust SpeedMPH,PrecipitationIn,Events,Conditions,WindDirDegrees,DateUTC
12:51 AM,62.1,43.0,50,30.07,10.0,ESE,3.5,-,N/A,,Scattered Clouds,110,2012-11-19 07:51:00
1:51 AM,59.0,42.1,53,30.08,10.0,Calm,Calm,-,N/A,,Scattered Clouds,0,2012-11-19 08:51:00
2:51 AM,57.2,41.0,55,30.11,10.0,Calm,Calm,-,N/A,,Partly Cloudy,0,2012-11-19 09:51:00
3:51 AM,57.0,41.0,55,30.09,10.0,Calm,Calm,-,N/A,,Clear,0,2012-11-19 10:51:00
4:51 AM,57.0,41.0,55,30.09,10.0,Calm,Calm,-,N/A,,Clear,0,2012-11-19 11:51:00
5:51 AM,57.9,39.9,51,30.10,10.0,NNE,3.5,-,N/A,,Partly Cloudy,30,2012-11-19 12:51:00
6:51 AM,55.9,39.9,55,30.13,10.0,ENE,3.5,-,N/A,,Scattered Clouds,60,2012-11-19 13:51:00
7:51 AM,57.0,39.9,53,30.15,10.0,East,3.5,-,N/A,,Scattered Clouds,100,2012-11-19 14:51:00
8:51 AM,62.1,39.9,44,30.17,10.0,East,4.6,-,N/A,,Scattered Clouds,100,2012-11-19 15:51:00
9:51 AM,66.0,39.9,38,30.18,10.0,Calm,Calm,-,N/A,,Partly Cloudy,0,2012-11-19 16:51:00
10:51 AM,73.0,39.9,30,30.17,10.0,East,8.1,-,N/A,,Partly Cloudy,100,2012-11-19 17:51:00
11:51 AM,75.9,39.9,27,30.15,10.0,ESE,6.9,-,N/A,,Partly Cloudy,110,2012-11-19 18:51:00
12:51 PM,75.9,39.9,27,30.12,10.0,Calm,Calm,-,N/A,,Partly Cloudy,0,2012-11-19 19:51:00
1:51 PM,79.0,39.0,24,30.10,10.0,NNE,3.5,-,N/A,,Partly Cloudy,20,2012-11-19 20:51:00
2:51 PM,79.0,39.0,24,30.08,10.0,Calm,Calm,-,N/A,,Partly Cloudy,0,2012-11-19 21:51:00
3:51 PM,79.0,35.1,20,30.07,10.0,Variable,3.5,-,N/A,,Partly Cloudy,0,2012-11-19 22:51:00
4:51 PM,78.1,32.0,19,30.08,10.0,Calm,Calm,-,N/A,,Partly Cloudy,0,2012-11-19 23:51:00
5:51 PM,73.9,35.1,24,30.08,10.0,SSW,3.5,-,N/A,,Partly Cloudy,200,2012-11-20 00:51:00
6:51 PM,71.6,35.6,27,30.13,10.0,SW,4.6,-,N/A,,Clear,230,2012-11-20 01:51:00
7:51 PM,73.0,39.0,29,30.10,10.0,WNW,3.5,-,N/A,,Clear,300,2012-11-20 02:51:00
8:51 PM,70.0,39.9,33,30.12,10.0,WNW,3.5,-,N/A,,Clear,290,2012-11-20 03:51:00
9:51 PM,64.9,39.0,39,30.12,10.0,Calm,Calm,-,N/A,,Clear,0,2012-11-20 04:51:00
10:51 PM,62.1,39.0,43,30.11,10.0,SSW,3.5,-,N/A,,Clear,200,2012-11-20 05:51:00
11:51 PM,63.0,41.0,45,30.10,10.0,ESE,3.5,-,N/A,,Clear,110,2012-11-20 06:51:00